sensor_id;sensor_type;location;lat;lon;timestamp;P1;durP1;ratioP1;P2;durP2;ratioP2
47625;SDS011;33342;45.574;9.252;2022-11-14T00:01:31;23.77;;;13.95;;
47625;SDS011;33342;45.574;9.252;2022-11-14T00:04:16;23.85;;;13.55;;
47625;SDS011;33342;45.574;9.252;2022-11-14T00:07:01;24.30;;;14.53;;
47625;SDS011;33342;45.574;9.252;2022-11-14T00:09:47;24.40;;;14.23;;
47625;SDS011;33342;45.574;9.252;2022-11-14T00:12:33;24.35;;;13.63;;
47625;SDS011;33342;45.574;9.252;2022-11-14T00:15:18;25.15;;;13.95;;
47625;SDS011;33342;45.574;9.252;2022-11-14T00:18:04;24.48;;;14.25;;
47625;SDS011;33342;45.574;9.252;2022-11-14T00:20:50;27.95;;;15.30;;
47625;SDS011;33342;45.574;9.252;2022-11-14T00:23:36;26.70;;;15.07;;
47625;SDS011;33342;45.574;9.252;2022-11-14T00:26:22;25.13;;;14.77;;
47625;SDS011;33342;45.574;9.252;2022-11-14T00:29:09;25.47;;;15.40;;
47625;SDS011;33342;45.574;9.252;2022-11-14T00:31:55;25.00;;;14.38;;
47625;SDS011;33342;45.574;9.252;2022-11-14T00:34:41;24.30;;;14.73;;
47625;SDS011;33342;45.574;9.252;2022-11-14T00:37:26;27.58;;;14.70;;
47625;SDS011;33342;45.574;9.252;2022-11-14T00:40:12;23.30;;;13.65;;
47625;SDS011;33342;45.574;9.252;2022-11-14T00:42:58;22.88;;;12.95;;
47625;SDS011;33342;45.574;9.252;2022-11-14T00:45:44;24.98;;;15.43;;
47625;SDS011;33342;45.574;9.252;2022-11-14T00:48:30;24.05;;;13.75;;
47625;SDS011;33342;45.574;9.252;2022-11-14T00:51:16;26.85;;;14.63;;
47625;SDS011;33342;45.574;9.252;2022-11-14T00:54:01;23.63;;;13.73;;
47625;SDS011;33342;45.574;9.252;2022-11-14T00:56:47;29.08;;;14.82;;
47625;SDS011;33342;45.574;9.252;2022-11-14T00:59:33;26.60;;;15.15;;
47625;SDS011;33342;45.574;9.252;2022-11-14T01:02:18;27.27;;;16.08;;
47625;SDS011;33342;45.574;9.252;2022-11-14T01:05:04;27.57;;;16.33;;
47625;SDS011;33342;45.574;9.252;2022-11-14T01:07:49;27.52;;;15.30;;
47625;SDS011;33342;45.574;9.252;2022-11-14T01:10:39;29.88;;;17.50;;
47625;SDS011;33342;45.574;9.252;2022-11-14T01:13:25;29.38;;;17.67;;
47625;SDS011;33342;45.574;9.252;2022-11-14T01:16:16;31.00;;;16.88;;
47625;SDS011;33342;45.574;9.252;2022-11-14T01:19:03;35.22;;;19.48;;
47625;SDS011;33342;45.574;9.252;2022-11-14T01:21:49;29.20;;;18.08;;
47625;SDS011;33342;45.574;9.252;2022-11-14T01:24:34;31.50;;;18.70;;
47625;SDS011;33342;45.574;9.252;2022-11-14T01:27:20;30.98;;;17.40;;
47625;SDS011;33342;45.574;9.252;2022-11-14T01:30:05;32.43;;;17.67;;
47625;SDS011;33342;45.574;9.252;2022-11-14T01:32:51;30.67;;;17.70;;
47625;SDS011;33342;45.574;9.252;2022-11-14T01:35:37;32.13;;;18.60;;
47625;SDS011;33342;45.574;9.252;2022-11-14T01:38:22;35.03;;;18.77;;
47625;SDS011;33342;45.574;9.252;2022-11-14T01:41:08;36.47;;;20.23;;
47625;SDS011;33342;45.574;9.252;2022-11-14T01:43:59;29.65;;;18.90;;
47625;SDS011;33342;45.574;9.252;2022-11-14T01:46:45;33.83;;;21.25;;
47625;SDS011;33342;45.574;9.252;2022-11-14T01:49:40;31.33;;;18.30;;
47625;SDS011;33342;45.574;9.252;2022-11-14T01:52:30;30.45;;;18.02;;
47625;SDS011;33342;45.574;9.252;2022-11-14T01:55:19;32.72;;;18.88;;
47625;SDS011;33342;45.574;9.252;2022-11-14T01:58:04;32.17;;;18.45;;
47625;SDS011;33342;45.574;9.252;2022-11-14T02:00:51;33.65;;;18.40;;
47625;SDS011;33342;45.574;9.252;2022-11-14T02:03:37;31.93;;;19.30;;
47625;SDS011;33342;45.574;9.252;2022-11-14T02:06:25;34.97;;;18.42;;
47625;SDS011;33342;45.574;9.252;2022-11-14T02:09:13;29.52;;;19.55;;
47625;SDS011;33342;45.574;9.252;2022-11-14T02:11:59;33.90;;;19.35;;
47625;SDS011;33342;45.574;9.252;2022-11-14T02:14:47;33.05;;;19.10;;
47625;SDS011;33342;45.574;9.252;2022-11-14T02:17:36;31.38;;;18.15;;
47625;SDS011;33342;45.574;9.252;2022-11-14T02:20:25;33.00;;;18.25;;
47625;SDS011;33342;45.574;9.252;2022-11-14T02:23:12;30.02;;;18.08;;
47625;SDS011;33342;45.574;9.252;2022-11-14T02:28:44;28.92;;;17.77;;
47625;SDS011;33342;45.574;9.252;2022-11-14T02:31:31;30.42;;;17.50;;
47625;SDS011;33342;45.574;9.252;2022-11-14T02:34:17;28.77;;;17.10;;
47625;SDS011;33342;45.574;9.252;2022-11-14T02:37:04;31.35;;;17.55;;
47625;SDS011;33342;45.574;9.252;2022-11-14T02:42:35;28.75;;;16.05;;
47625;SDS011;33342;45.574;9.252;2022-11-14T02:45:21;29.25;;;16.83;;
47625;SDS011;33342;45.574;9.252;2022-11-14T02:48:06;27.63;;;15.60;;
47625;SDS011;33342;45.574;9.252;2022-11-14T02:50:51;27.80;;;17.92;;
47625;SDS011;33342;45.574;9.252;2022-11-14T02:53:37;28.10;;;16.80;;
47625;SDS011;33342;45.574;9.252;2022-11-14T02:56:22;26.53;;;16.30;;
47625;SDS011;33342;45.574;9.252;2022-11-14T02:59:08;31.27;;;16.90;;
47625;SDS011;33342;45.574;9.252;2022-11-14T03:01:53;29.73;;;17.13;;
47625;SDS011;33342;45.574;9.252;2022-11-14T03:04:39;26.52;;;16.20;;
47625;SDS011;33342;45.574;9.252;2022-11-14T03:07:25;27.55;;;16.92;;
47625;SDS011;33342;45.574;9.252;2022-11-14T03:10:10;27.57;;;16.47;;
47625;SDS011;33342;45.574;9.252;2022-11-14T03:12:57;29.73;;;15.38;;
47625;SDS011;33342;45.574;9.252;2022-11-14T03:15:43;32.80;;;17.83;;
47625;SDS011;33342;45.574;9.252;2022-11-14T03:18:28;29.08;;;15.98;;
47625;SDS011;33342;45.574;9.252;2022-11-14T03:21:15;31.30;;;17.83;;
47625;SDS011;33342;45.574;9.252;2022-11-14T03:24:02;29.13;;;18.35;;
47625;SDS011;33342;45.574;9.252;2022-11-14T03:26:47;27.98;;;16.55;;
47625;SDS011;33342;45.574;9.252;2022-11-14T03:29:33;29.60;;;17.27;;
47625;SDS011;33342;45.574;9.252;2022-11-14T03:32:18;34.07;;;16.53;;
47625;SDS011;33342;45.574;9.252;2022-11-14T03:35:03;31.73;;;17.67;;
47625;SDS011;33342;45.574;9.252;2022-11-14T03:37:49;30.38;;;16.80;;
47625;SDS011;33342;45.574;9.252;2022-11-14T03:40:40;29.58;;;16.50;;
47625;SDS011;33342;45.574;9.252;2022-11-14T03:43:28;31.00;;;17.35;;
47625;SDS011;33342;45.574;9.252;2022-11-14T03:46:15;31.05;;;18.35;;
47625;SDS011;33342;45.574;9.252;2022-11-14T03:49:01;29.35;;;17.23;;
47625;SDS011;33342;45.574;9.252;2022-11-14T03:51:47;30.00;;;17.58;;
47625;SDS011;33342;45.574;9.252;2022-11-14T03:54:32;29.80;;;18.30;;
47625;SDS011;33342;45.574;9.252;2022-11-14T03:57:18;33.10;;;17.52;;
47625;SDS011;33342;45.574;9.252;2022-11-14T04:00:03;30.53;;;17.17;;
47625;SDS011;33342;45.574;9.252;2022-11-14T04:02:49;31.30;;;18.00;;
47625;SDS011;33342;45.574;9.252;2022-11-14T04:05:34;28.40;;;17.20;;
47625;SDS011;33342;45.574;9.252;2022-11-14T04:08:19;30.17;;;18.52;;
47625;SDS011;33342;45.574;9.252;2022-11-14T04:11:05;30.88;;;18.35;;
47625;SDS011;33342;45.574;9.252;2022-11-14T04:13:51;32.55;;;18.52;;
47625;SDS011;33342;45.574;9.252;2022-11-14T04:16:36;27.88;;;17.38;;
47625;SDS011;33342;45.574;9.252;2022-11-14T04:22:08;32.13;;;17.73;;
47625;SDS011;33342;45.574;9.252;2022-11-14T04:24:53;33.55;;;19.45;;
47625;SDS011;33342;45.574;9.252;2022-11-14T04:27:38;33.35;;;18.13;;
47625;SDS011;33342;45.574;9.252;2022-11-14T04:30:24;31.48;;;17.83;;
47625;SDS011;33342;45.574;9.252;2022-11-14T04:33:16;32.72;;;18.75;;
47625;SDS011;33342;45.574;9.252;2022-11-14T04:36:01;32.63;;;19.20;;
47625;SDS011;33342;45.574;9.252;2022-11-14T04:38:46;30.88;;;18.65;;
47625;SDS011;33342;45.574;9.252;2022-11-14T04:41:32;34.35;;;18.75;;
47625;SDS011;33342;45.574;9.252;2022-11-14T04:44:17;32.87;;;18.97;;
47625;SDS011;33342;45.574;9.252;2022-11-14T04:47:02;35.53;;;18.43;;
47625;SDS011;33342;45.574;9.252;2022-11-14T04:49:48;32.72;;;18.90;;
47625;SDS011;33342;45.574;9.252;2022-11-14T04:52:33;34.58;;;19.85;;
47625;SDS011;33342;45.574;9.252;2022-11-14T04:55:19;32.95;;;18.15;;
47625;SDS011;33342;45.574;9.252;2022-11-14T04:58:04;36.92;;;20.60;;
47625;SDS011;33342;45.574;9.252;2022-11-14T05:00:50;34.45;;;18.60;;
47625;SDS011;33342;45.574;9.252;2022-11-14T05:03:35;35.95;;;19.17;;
47625;SDS011;33342;45.574;9.252;2022-11-14T05:06:21;35.17;;;20.60;;
47625;SDS011;33342;45.574;9.252;2022-11-14T05:09:07;36.53;;;19.57;;
47625;SDS011;33342;45.574;9.252;2022-11-14T05:11:52;32.13;;;19.30;;
47625;SDS011;33342;45.574;9.252;2022-11-14T05:14:37;35.78;;;19.88;;
47625;SDS011;33342;45.574;9.252;2022-11-14T05:17:23;35.47;;;18.95;;
47625;SDS011;33342;45.574;9.252;2022-11-14T05:20:09;32.17;;;19.50;;
47625;SDS011;33342;45.574;9.252;2022-11-14T05:25:40;36.40;;;18.67;;
47625;SDS011;33342;45.574;9.252;2022-11-14T05:28:25;36.83;;;19.67;;
47625;SDS011;33342;45.574;9.252;2022-11-14T05:31:13;33.92;;;19.50;;
47625;SDS011;33342;45.574;9.252;2022-11-14T05:34:01;37.17;;;19.77;;
47625;SDS011;33342;45.574;9.252;2022-11-14T05:36:47;35.28;;;19.73;;
47625;SDS011;33342;45.574;9.252;2022-11-14T05:39:32;36.72;;;20.98;;
47625;SDS011;33342;45.574;9.252;2022-11-14T05:42:17;36.42;;;19.33;;
47625;SDS011;33342;45.574;9.252;2022-11-14T05:45:03;36.78;;;20.35;;
47625;SDS011;33342;45.574;9.252;2022-11-14T05:47:50;37.28;;;21.00;;
47625;SDS011;33342;45.574;9.252;2022-11-14T05:50:38;37.60;;;19.40;;
47625;SDS011;33342;45.574;9.252;2022-11-14T05:53:23;35.92;;;19.13;;
47625;SDS011;33342;45.574;9.252;2022-11-14T05:56:10;36.05;;;20.95;;
47625;SDS011;33342;45.574;9.252;2022-11-14T05:58:56;37.17;;;19.50;;
47625;SDS011;33342;45.574;9.252;2022-11-14T06:01:42;40.40;;;20.65;;
47625;SDS011;33342;45.574;9.252;2022-11-14T06:04:28;38.58;;;19.85;;
47625;SDS011;33342;45.574;9.252;2022-11-14T06:07:14;36.95;;;19.90;;
47625;SDS011;33342;45.574;9.252;2022-11-14T06:10:04;34.03;;;18.65;;
47625;SDS011;33342;45.574;9.252;2022-11-14T06:15:36;34.20;;;18.67;;
47625;SDS011;33342;45.574;9.252;2022-11-14T06:18:21;37.72;;;21.33;;
47625;SDS011;33342;45.574;9.252;2022-11-14T06:21:09;39.67;;;22.40;;
47625;SDS011;33342;45.574;9.252;2022-11-14T06:23:56;35.35;;;20.02;;
47625;SDS011;33342;45.574;9.252;2022-11-14T06:26:41;37.58;;;21.70;;
47625;SDS011;33342;45.574;9.252;2022-11-14T06:29:27;36.38;;;20.38;;
47625;SDS011;33342;45.574;9.252;2022-11-14T06:32:19;34.10;;;19.02;;
47625;SDS011;33342;45.574;9.252;2022-11-14T06:35:05;36.58;;;20.92;;
47625;SDS011;33342;45.574;9.252;2022-11-14T06:37:52;38.95;;;20.35;;
47625;SDS011;33342;45.574;9.252;2022-11-14T06:40:37;36.90;;;21.30;;
47625;SDS011;33342;45.574;9.252;2022-11-14T06:43:22;35.77;;;20.20;;
47625;SDS011;33342;45.574;9.252;2022-11-14T06:46:09;35.13;;;18.83;;
47625;SDS011;33342;45.574;9.252;2022-11-14T06:48:56;37.85;;;20.50;;
47625;SDS011;33342;45.574;9.252;2022-11-14T06:51:42;35.35;;;20.23;;
47625;SDS011;33342;45.574;9.252;2022-11-14T06:54:27;35.23;;;19.20;;
47625;SDS011;33342;45.574;9.252;2022-11-14T06:57:12;37.85;;;18.70;;
47625;SDS011;33342;45.574;9.252;2022-11-14T06:59:58;37.38;;;20.75;;
47625;SDS011;33342;45.574;9.252;2022-11-14T07:02:47;38.22;;;20.13;;
47625;SDS011;33342;45.574;9.252;2022-11-14T07:05:33;35.47;;;19.33;;
47625;SDS011;33342;45.574;9.252;2022-11-14T07:08:18;35.47;;;20.10;;
47625;SDS011;33342;45.574;9.252;2022-11-14T07:11:14;38.13;;;19.75;;
47625;SDS011;33342;45.574;9.252;2022-11-14T07:14:07;37.53;;;20.92;;
47625;SDS011;33342;45.574;9.252;2022-11-14T07:16:53;41.63;;;21.85;;
47625;SDS011;33342;45.574;9.252;2022-11-14T07:19:38;35.13;;;18.90;;
47625;SDS011;33342;45.574;9.252;2022-11-14T07:22:24;41.00;;;20.45;;
47625;SDS011;33342;45.574;9.252;2022-11-14T07:25:09;37.77;;;21.73;;
47625;SDS011;33342;45.574;9.252;2022-11-14T07:27:56;36.40;;;20.53;;
47625;SDS011;33342;45.574;9.252;2022-11-14T07:30:41;39.22;;;19.85;;
47625;SDS011;33342;45.574;9.252;2022-11-14T07:33:28;38.10;;;21.00;;
47625;SDS011;33342;45.574;9.252;2022-11-14T07:36:15;35.60;;;19.75;;
47625;SDS011;33342;45.574;9.252;2022-11-14T07:39:02;38.90;;;21.35;;
47625;SDS011;33342;45.574;9.252;2022-11-14T07:41:47;35.88;;;20.60;;
47625;SDS011;33342;45.574;9.252;2022-11-14T07:44:33;37.80;;;20.65;;
47625;SDS011;33342;45.574;9.252;2022-11-14T07:47:19;35.88;;;19.55;;
47625;SDS011;33342;45.574;9.252;2022-11-14T07:50:04;40.42;;;21.10;;
47625;SDS011;33342;45.574;9.252;2022-11-14T07:52:53;33.92;;;19.52;;
47625;SDS011;33342;45.574;9.252;2022-11-14T07:55:39;37.90;;;20.33;;
47625;SDS011;33342;45.574;9.252;2022-11-14T07:58:25;38.10;;;21.13;;
47625;SDS011;33342;45.574;9.252;2022-11-14T08:01:11;38.38;;;21.10;;
47625;SDS011;33342;45.574;9.252;2022-11-14T08:03:57;45.22;;;21.15;;
47625;SDS011;33342;45.574;9.252;2022-11-14T08:06:42;37.17;;;19.70;;
47625;SDS011;33342;45.574;9.252;2022-11-14T08:09:28;38.33;;;20.75;;
47625;SDS011;33342;45.574;9.252;2022-11-14T08:12:13;36.27;;;19.33;;
47625;SDS011;33342;45.574;9.252;2022-11-14T08:14:59;39.88;;;19.98;;
47625;SDS011;33342;45.574;9.252;2022-11-14T08:17:44;37.83;;;20.57;;
47625;SDS011;33342;45.574;9.252;2022-11-14T08:20:29;38.33;;;19.83;;
47625;SDS011;33342;45.574;9.252;2022-11-14T08:23:15;40.67;;;21.65;;
47625;SDS011;33342;45.574;9.252;2022-11-14T08:26:00;37.60;;;20.10;;
47625;SDS011;33342;45.574;9.252;2022-11-14T08:28:45;35.90;;;19.60;;
47625;SDS011;33342;45.574;9.252;2022-11-14T08:31:31;39.63;;;20.83;;
47625;SDS011;33342;45.574;9.252;2022-11-14T08:34:16;34.45;;;18.27;;
47625;SDS011;33342;45.574;9.252;2022-11-14T08:37:02;36.65;;;20.35;;
47625;SDS011;33342;45.574;9.252;2022-11-14T08:39:48;34.05;;;18.77;;
47625;SDS011;33342;45.574;9.252;2022-11-14T08:42:33;36.40;;;20.17;;
47625;SDS011;33342;45.574;9.252;2022-11-14T08:45:18;37.05;;;18.98;;
47625;SDS011;33342;45.574;9.252;2022-11-14T08:48:04;33.53;;;19.38;;
47625;SDS011;33342;45.574;9.252;2022-11-14T08:50:49;32.95;;;19.35;;
47625;SDS011;33342;45.574;9.252;2022-11-14T08:53:35;42.53;;;18.87;;
47625;SDS011;33342;45.574;9.252;2022-11-14T08:56:20;35.47;;;19.17;;
47625;SDS011;33342;45.574;9.252;2022-11-14T08:59:06;34.92;;;19.30;;
47625;SDS011;33342;45.574;9.252;2022-11-14T09:01:52;40.95;;;20.35;;
47625;SDS011;33342;45.574;9.252;2022-11-14T09:04:37;36.47;;;20.05;;
47625;SDS011;33342;45.574;9.252;2022-11-14T09:07:23;36.17;;;19.58;;
47625;SDS011;33342;45.574;9.252;2022-11-14T09:10:09;36.72;;;20.52;;
47625;SDS011;33342;45.574;9.252;2022-11-14T09:12:58;35.42;;;20.05;;
47625;SDS011;33342;45.574;9.252;2022-11-14T09:15:45;36.45;;;20.23;;
47625;SDS011;33342;45.574;9.252;2022-11-14T09:18:31;33.33;;;17.92;;
47625;SDS011;33342;45.574;9.252;2022-11-14T09:21:17;31.05;;;17.67;;
47625;SDS011;33342;45.574;9.252;2022-11-14T09:24:03;32.75;;;17.52;;
47625;SDS011;33342;45.574;9.252;2022-11-14T09:26:49;31.50;;;17.55;;
47625;SDS011;33342;45.574;9.252;2022-11-14T09:29:41;30.75;;;17.50;;
47625;SDS011;33342;45.574;9.252;2022-11-14T09:32:26;30.63;;;17.87;;
47625;SDS011;33342;45.574;9.252;2022-11-14T09:35:11;30.42;;;17.15;;
47625;SDS011;33342;45.574;9.252;2022-11-14T09:38:01;30.60;;;17.47;;
47625;SDS011;33342;45.574;9.252;2022-11-14T09:47:40;30.23;;;15.82;;
47625;SDS011;33342;45.574;9.252;2022-11-14T09:50:32;28.67;;;16.02;;
47625;SDS011;33342;45.574;9.252;2022-11-14T09:53:29;27.40;;;15.18;;
47625;SDS011;33342;45.574;9.252;2022-11-14T09:56:26;28.30;;;15.63;;
47625;SDS011;33342;45.574;9.252;2022-11-14T09:59:12;28.58;;;15.57;;
47625;SDS011;33342;45.574;9.252;2022-11-14T10:02:10;25.52;;;14.90;;
47625;SDS011;33342;45.574;9.252;2022-11-14T10:11:58;30.73;;;15.52;;
47625;SDS011;33342;45.574;9.252;2022-11-14T10:17:53;29.15;;;17.00;;
47625;SDS011;33342;45.574;9.252;2022-11-14T10:27:35;29.40;;;15.52;;
47625;SDS011;33342;45.574;9.252;2022-11-14T10:30:43;25.98;;;14.93;;
47625;SDS011;33342;45.574;9.252;2022-11-14T10:33:58;26.63;;;14.90;;
47625;SDS011;33342;45.574;9.252;2022-11-14T10:43:02;26.73;;;15.32;;
47625;SDS011;33342;45.574;9.252;2022-11-14T10:45:59;27.30;;;16.00;;
47625;SDS011;33342;45.574;9.252;2022-11-14T10:48:51;29.73;;;15.98;;
47625;SDS011;33342;45.574;9.252;2022-11-14T10:51:49;31.90;;;16.85;;
47625;SDS011;33342;45.574;9.252;2022-11-14T10:57:29;28.63;;;15.00;;
47625;SDS011;33342;45.574;9.252;2022-11-14T11:00:18;23.40;;;13.45;;
47625;SDS011;33342;45.574;9.252;2022-11-14T11:03:07;25.92;;;14.23;;
47625;SDS011;33342;45.574;9.252;2022-11-14T11:05:52;28.63;;;15.43;;
47625;SDS011;33342;45.574;9.252;2022-11-14T11:08:42;28.30;;;14.93;;
47625;SDS011;33342;45.574;9.252;2022-11-14T11:11:52;25.58;;;15.13;;
47625;SDS011;33342;45.574;9.252;2022-11-14T11:14:43;22.83;;;12.93;;
47625;SDS011;33342;45.574;9.252;2022-11-14T11:17:29;25.83;;;13.55;;
47625;SDS011;33342;45.574;9.252;2022-11-14T11:20:24;22.48;;;13.90;;
47625;SDS011;33342;45.574;9.252;2022-11-14T11:23:21;24.83;;;13.85;;
47625;SDS011;33342;45.574;9.252;2022-11-14T11:26:26;24.35;;;13.13;;
47625;SDS011;33342;45.574;9.252;2022-11-14T11:29:14;21.98;;;13.02;;
47625;SDS011;33342;45.574;9.252;2022-11-14T11:32:02;26.33;;;12.48;;
47625;SDS011;33342;45.574;9.252;2022-11-14T11:34:49;22.83;;;12.77;;
47625;SDS011;33342;45.574;9.252;2022-11-14T11:37:37;24.20;;;13.25;;
47625;SDS011;33342;45.574;9.252;2022-11-14T11:40:25;23.85;;;13.57;;
47625;SDS011;33342;45.574;9.252;2022-11-14T11:43:18;25.30;;;13.70;;
47625;SDS011;33342;45.574;9.252;2022-11-14T11:46:25;24.20;;;11.75;;
47625;SDS011;33342;45.574;9.252;2022-11-14T11:49:31;21.50;;;12.35;;
47625;SDS011;33342;45.574;9.252;2022-11-14T11:55:45;22.50;;;12.68;;
47625;SDS011;33342;45.574;9.252;2022-11-14T11:58:37;21.50;;;12.50;;
47625;SDS011;33342;45.574;9.252;2022-11-14T12:01:28;24.25;;;13.32;;
47625;SDS011;33342;45.574;9.252;2022-11-14T12:04:14;25.00;;;14.30;;
47625;SDS011;33342;45.574;9.252;2022-11-14T12:07:02;21.10;;;12.73;;
47625;SDS011;33342;45.574;9.252;2022-11-14T12:09:55;23.83;;;13.27;;
47625;SDS011;33342;45.574;9.252;2022-11-14T12:25:34;23.00;;;13.18;;
47625;SDS011;33342;45.574;9.252;2022-11-14T12:28:49;23.17;;;12.43;;
47625;SDS011;33342;45.574;9.252;2022-11-14T12:31:56;23.33;;;12.60;;
47625;SDS011;33342;45.574;9.252;2022-11-14T12:34:48;19.95;;;11.25;;
47625;SDS011;33342;45.574;9.252;2022-11-14T12:37:35;22.63;;;12.75;;
47625;SDS011;33342;45.574;9.252;2022-11-14T12:40:34;23.67;;;12.02;;
47625;SDS011;33342;45.574;9.252;2022-11-14T12:43:27;21.30;;;11.18;;
47625;SDS011;33342;45.574;9.252;2022-11-14T12:46:27;23.98;;;13.70;;
47625;SDS011;33342;45.574;9.252;2022-11-14T12:58:11;22.92;;;12.10;;
47625;SDS011;33342;45.574;9.252;2022-11-14T13:10:14;21.88;;;11.88;;
47625;SDS011;33342;45.574;9.252;2022-11-14T13:13:12;22.45;;;12.57;;
47625;SDS011;33342;45.574;9.252;2022-11-14T13:16:25;20.00;;;11.52;;
47625;SDS011;33342;45.574;9.252;2022-11-14T13:19:33;17.98;;;10.25;;
47625;SDS011;33342;45.574;9.252;2022-11-14T13:22:38;18.90;;;10.52;;
47625;SDS011;33342;45.574;9.252;2022-11-14T13:25:25;20.20;;;11.93;;
47625;SDS011;33342;45.574;9.252;2022-11-14T13:34:27;20.73;;;10.52;;
47625;SDS011;33342;45.574;9.252;2022-11-14T13:53:16;20.75;;;11.63;;
47625;SDS011;33342;45.574;9.252;2022-11-14T14:05:53;21.83;;;12.57;;
47625;SDS011;33342;45.574;9.252;2022-11-14T14:08:56;20.55;;;11.88;;
47625;SDS011;33342;45.574;9.252;2022-11-14T14:14:58;21.30;;;12.52;;
47625;SDS011;33342;45.574;9.252;2022-11-14T14:24:18;19.40;;;11.52;;
47625;SDS011;33342;45.574;9.252;2022-11-14T14:30:38;20.90;;;13.85;;
47625;SDS011;33342;45.574;9.252;2022-11-14T14:33:23;24.05;;;13.70;;
47625;SDS011;33342;45.574;9.252;2022-11-14T14:36:42;22.67;;;12.82;;
47625;SDS011;33342;45.574;9.252;2022-11-14T14:39:22;22.65;;;12.43;;
47625;SDS011;33342;45.574;9.252;2022-11-14T14:42:12;24.75;;;12.98;;
47625;SDS011;33342;45.574;9.252;2022-11-14T14:44:57;22.48;;;12.32;;
47625;SDS011;33342;45.574;9.252;2022-11-14T14:47:44;24.65;;;13.25;;
47625;SDS011;33342;45.574;9.252;2022-11-14T14:53:30;21.90;;;12.43;;
47625;SDS011;33342;45.574;9.252;2022-11-14T14:56:18;20.70;;;11.95;;
47625;SDS011;33342;45.574;9.252;2022-11-14T14:59:20;21.77;;;17.42;;
47625;SDS011;33342;45.574;9.252;2022-11-14T15:02:11;22.88;;;13.00;;
47625;SDS011;33342;45.574;9.252;2022-11-14T15:05:00;18.67;;;11.38;;
47625;SDS011;33342;45.574;9.252;2022-11-14T15:07:46;19.10;;;16.38;;
47625;SDS011;33342;45.574;9.252;2022-11-14T15:10:34;21.17;;;13.00;;
47625;SDS011;33342;45.574;9.252;2022-11-14T15:13:19;20.35;;;11.45;;
47625;SDS011;33342;45.574;9.252;2022-11-14T15:16:07;18.13;;;10.77;;
47625;SDS011;33342;45.574;9.252;2022-11-14T15:18:54;17.50;;;11.00;;
47625;SDS011;33342;45.574;9.252;2022-11-14T15:21:41;16.55;;;9.70;;
47625;SDS011;33342;45.574;9.252;2022-11-14T15:24:27;14.43;;;8.52;;
47625;SDS011;33342;45.574;9.252;2022-11-14T15:27:14;16.05;;;9.00;;
47625;SDS011;33342;45.574;9.252;2022-11-14T15:30:17;14.27;;;8.80;;
47625;SDS011;33342;45.574;9.252;2022-11-14T15:33:24;64.78;;;39.10;;
47625;SDS011;33342;45.574;9.252;2022-11-14T15:36:17;15.32;;;8.40;;
47625;SDS011;33342;45.574;9.252;2022-11-14T15:39:04;14.23;;;8.38;;
47625;SDS011;33342;45.574;9.252;2022-11-14T15:45:19;16.63;;;9.00;;
47625;SDS011;33342;45.574;9.252;2022-11-14T15:48:11;20.58;;;8.90;;
47625;SDS011;33342;45.574;9.252;2022-11-14T15:51:02;13.57;;;8.80;;
47625;SDS011;33342;45.574;9.252;2022-11-14T15:53:47;17.60;;;8.55;;
47625;SDS011;33342;45.574;9.252;2022-11-14T15:59:19;16.73;;;9.10;;
47625;SDS011;33342;45.574;9.252;2022-11-14T16:02:27;16.75;;;9.65;;
47625;SDS011;33342;45.574;9.252;2022-11-14T16:05:30;15.73;;;9.18;;
47625;SDS011;33342;45.574;9.252;2022-11-14T16:08:17;17.08;;;9.18;;
47625;SDS011;33342;45.574;9.252;2022-11-14T16:11:02;15.68;;;9.73;;
47625;SDS011;33342;45.574;9.252;2022-11-14T16:13:47;13.90;;;8.75;;
47625;SDS011;33342;45.574;9.252;2022-11-14T16:16:33;14.55;;;8.95;;
47625;SDS011;33342;45.574;9.252;2022-11-14T16:19:18;17.58;;;9.93;;
47625;SDS011;33342;45.574;9.252;2022-11-14T16:22:07;19.20;;;10.63;;
47625;SDS011;33342;45.574;9.252;2022-11-14T16:24:58;19.38;;;9.77;;
47625;SDS011;33342;45.574;9.252;2022-11-14T16:27:44;16.88;;;9.18;;
47625;SDS011;33342;45.574;9.252;2022-11-14T16:30:30;19.02;;;9.38;;
47625;SDS011;33342;45.574;9.252;2022-11-14T16:33:15;19.90;;;9.40;;
47625;SDS011;33342;45.574;9.252;2022-11-14T16:36:01;19.02;;;9.52;;
47625;SDS011;33342;45.574;9.252;2022-11-14T16:38:46;21.80;;;9.93;;
47625;SDS011;33342;45.574;9.252;2022-11-14T16:41:36;16.38;;;9.02;;
47625;SDS011;33342;45.574;9.252;2022-11-14T16:44:22;17.38;;;10.30;;
47625;SDS011;33342;45.574;9.252;2022-11-14T16:47:10;18.08;;;9.73;;
47625;SDS011;33342;45.574;9.252;2022-11-14T16:49:58;19.67;;;10.18;;
47625;SDS011;33342;45.574;9.252;2022-11-14T16:52:44;17.92;;;9.38;;
47625;SDS011;33342;45.574;9.252;2022-11-14T16:55:32;16.73;;;9.57;;
47625;SDS011;33342;45.574;9.252;2022-11-14T16:58:18;19.65;;;10.30;;
47625;SDS011;33342;45.574;9.252;2022-11-14T17:01:04;15.88;;;10.23;;
47625;SDS011;33342;45.574;9.252;2022-11-14T17:03:55;18.92;;;10.73;;
47625;SDS011;33342;45.574;9.252;2022-11-14T17:06:45;21.80;;;10.23;;
47625;SDS011;33342;45.574;9.252;2022-11-14T17:09:30;15.15;;;9.55;;
47625;SDS011;33342;45.574;9.252;2022-11-14T17:12:15;16.23;;;10.07;;
47625;SDS011;33342;45.574;9.252;2022-11-14T17:15:01;18.45;;;9.52;;
47625;SDS011;33342;45.574;9.252;2022-11-14T17:17:46;17.63;;;9.97;;
47625;SDS011;33342;45.574;9.252;2022-11-14T17:20:35;19.70;;;10.95;;
47625;SDS011;33342;45.574;9.252;2022-11-14T17:23:22;18.98;;;10.93;;
47625;SDS011;33342;45.574;9.252;2022-11-14T17:26:08;19.37;;;9.57;;
47625;SDS011;33342;45.574;9.252;2022-11-14T17:28:55;22.83;;;10.80;;
47625;SDS011;33342;45.574;9.252;2022-11-14T17:31:41;18.95;;;10.02;;
47625;SDS011;33342;45.574;9.252;2022-11-14T17:34:31;16.33;;;9.98;;
47625;SDS011;33342;45.574;9.252;2022-11-14T17:37:16;18.07;;;10.10;;
47625;SDS011;33342;45.574;9.252;2022-11-14T17:40:02;18.47;;;10.93;;
47625;SDS011;33342;45.574;9.252;2022-11-14T17:42:47;19.25;;;10.93;;
47625;SDS011;33342;45.574;9.252;2022-11-14T17:45:33;19.45;;;9.88;;
47625;SDS011;33342;45.574;9.252;2022-11-14T17:48:24;18.52;;;10.20;;
47625;SDS011;33342;45.574;9.252;2022-11-14T17:51:11;18.23;;;10.32;;
47625;SDS011;33342;45.574;9.252;2022-11-14T17:53:58;19.92;;;10.52;;
47625;SDS011;33342;45.574;9.252;2022-11-14T17:56:44;20.90;;;12.43;;
47625;SDS011;33342;45.574;9.252;2022-11-14T17:59:36;18.35;;;10.57;;
47625;SDS011;33342;45.574;9.252;2022-11-14T18:02:22;20.10;;;11.60;;
47625;SDS011;33342;45.574;9.252;2022-11-14T18:05:08;19.88;;;10.80;;
47625;SDS011;33342;45.574;9.252;2022-11-14T18:07:53;21.07;;;10.70;;
47625;SDS011;33342;45.574;9.252;2022-11-14T18:10:39;24.98;;;12.45;;
47625;SDS011;33342;45.574;9.252;2022-11-14T18:13:24;19.55;;;11.80;;
47625;SDS011;33342;45.574;9.252;2022-11-14T18:16:14;18.20;;;10.83;;
47625;SDS011;33342;45.574;9.252;2022-11-14T18:19:01;19.88;;;10.80;;
47625;SDS011;33342;45.574;9.252;2022-11-14T18:21:48;17.60;;;10.27;;
47625;SDS011;33342;45.574;9.252;2022-11-14T18:24:38;20.02;;;11.45;;
47625;SDS011;33342;45.574;9.252;2022-11-14T18:27:27;21.38;;;10.95;;
47625;SDS011;33342;45.574;9.252;2022-11-14T18:30:12;21.48;;;11.23;;
47625;SDS011;33342;45.574;9.252;2022-11-14T18:33:17;27.90;;;12.45;;
47625;SDS011;33342;45.574;9.252;2022-11-14T18:36:04;32.47;;;16.55;;
47625;SDS011;33342;45.574;9.252;2022-11-14T18:38:54;28.50;;;15.85;;
47625;SDS011;33342;45.574;9.252;2022-11-14T18:41:40;30.83;;;13.38;;